createdAt,value
2018-01-20T00:00:44.285Z,97211.31
2018-01-20T00:01:49.444Z,97201.87
2018-01-20T00:02:54.305Z,97207.91
2018-01-20T00:03:58.879Z,97200.91
2018-01-20T00:05:03.453Z,97202.13
2018-01-20T00:06:08.058Z,97205.84
2018-01-20T00:07:12.774Z,97205.86
2018-01-20T00:08:17.994Z,97203.10
2018-01-20T00:09:26.947Z,97208.36
2018-01-20T00:12:42.998Z,97208.58
2018-01-20T00:13:47.831Z,97203.67
2018-01-20T00:14:52.928Z,97206.27
2018-01-20T00:15:57.671Z,97207.03
2018-01-20T00:17:03.018Z,97209.48
2018-01-20T00:18:07.749Z,97205.30
2018-01-20T00:19:12.474Z,97203.20
2018-01-20T00:20:17.246Z,97207.01
2018-01-20T00:21:22.477Z,97209.13
2018-01-20T00:22:27.183Z,97207.03
2018-01-20T00:23:31.921Z,97201.67
2018-01-20T00:24:40.649Z,97199.62
2018-01-20T00:25:49.470Z,97206.15
2018-01-20T00:26:54.724Z,97200.39
2018-01-20T00:27:59.289Z,97202.87
2018-01-20T00:29:03.804Z,97202.08
2018-01-20T00:30:08.322Z,97193.88
2018-01-20T00:31:13.806Z,97197.89
2018-01-20T00:32:19.068Z,97195.48
2018-01-20T00:33:24.039Z,97197.18
2018-01-20T00:34:28.597Z,97184.42
2018-01-20T00:35:33.148Z,97196.06
2018-01-20T00:36:37.684Z,97200.01
2018-01-20T00:37:42.300Z,97194.28
2018-01-20T00:38:46.894Z,97200.06
2018-01-20T00:39:51.887Z,97194.38
2018-01-20T00:40:56.516Z,97193.92
2018-01-20T00:42:01.077Z,97196.32
2018-01-20T00:43:05.523Z,97192.66
2018-01-20T00:44:09.983Z,97189.69
2018-01-20T00:45:14.408Z,97192.18
2018-01-20T00:46:19.577Z,97188.09
2018-01-20T00:47:24.221Z,97188.84
2018-01-20T00:48:28.824Z,97189.69
2018-01-20T00:49:33.242Z,97183.55
2018-01-20T00:50:37.657Z,97184.86
2018-01-20T00:51:42.110Z,97180.81
2018-01-20T00:52:47.225Z,97187.33
2018-01-20T00:53:51.826Z,97181.09
2018-01-20T00:54:56.531Z,97177.36
2018-01-20T00:56:01.114Z,97183.55
2018-01-20T00:57:05.706Z,97181.09
2018-01-20T00:58:10.365Z,97181.87
2018-01-20T00:59:15.281Z,97178.55
2018-01-20T01:00:19.883Z,97175.57
2018-01-20T01:01:24.465Z,97184.28
2018-01-20T01:02:28.969Z,97178.92
2018-01-20T01:03:33.579Z,97174.20
2018-01-20T01:04:38.143Z,97170.91
2018-01-20T01:05:43.246Z,97170.72
2018-01-20T01:06:47.810Z,97172.13
2018-01-20T01:07:52.397Z,97168.13
2018-01-20T01:08:56.956Z,97169.01
2018-01-20T01:10:01.519Z,97171.81
2018-01-20T01:11:06.187Z,97163.11
2018-01-20T01:12:11.064Z,97166.91
2018-01-20T01:13:15.631Z,97167.36
2018-01-20T01:14:20.203Z,97151.37
2018-01-20T01:15:24.923Z,97161.34
2018-01-20T01:16:29.698Z,97157.87
2018-01-20T01:17:34.330Z,97158.58
2018-01-20T01:18:39.420Z,97157.52
2018-01-20T01:19:44.078Z,97154.64
2018-01-20T01:20:48.649Z,97156.78
2018-01-20T01:21:53.216Z,97146.41
2018-01-20T01:22:57.742Z,97149.42
2018-01-20T01:24:02.453Z,97147.19
2018-01-20T01:25:07.604Z,97158.84
2018-01-20T01:26:12.317Z,97154.34
2018-01-20T01:27:16.901Z,97156.75
2018-01-20T01:28:21.506Z,97150.13
2018-01-20T01:29:26.062Z,97156.23
2018-01-20T01:30:31.065Z,97153.25
2018-01-20T01:31:35.663Z,97154.77
2018-01-20T01:32:40.191Z,97148.50
2018-01-20T01:33:44.688Z,97157.97
2018-01-20T01:34:49.188Z,97157.85
2018-01-20T01:35:53.661Z,97157.47
2018-01-20T01:36:58.535Z,97152.90
2018-01-20T01:38:03.068Z,97153.38
2018-01-20T01:39:07.420Z,97150.55
2018-01-20T01:40:11.914Z,97163.23
2018-01-20T01:41:16.451Z,97154.59
2018-01-20T01:42:20.830Z,97157.87
2018-01-20T01:43:25.864Z,97153.69
2018-01-20T01:44:30.436Z,97147.83
2018-01-20T01:45:34.973Z,97149.47
2018-01-20T01:46:39.369Z,97152.01
2018-01-20T01:47:43.888Z,97150.68
2018-01-20T01:48:48.455Z,97143.87
2018-01-20T01:49:53.523Z,97153.92
2018-01-20T01:50:58.112Z,97153.42
2018-01-20T01:52:02.773Z,97146.78
2018-01-20T01:53:07.392Z,97150.58
2018-01-20T01:54:12.013Z,97148.98
2018-01-20T01:55:16.785Z,97152.92
2018-01-20T01:56:21.781Z,97149.66
2018-01-20T01:57:26.498Z,97150.87
2018-01-20T01:58:31.043Z,97145.23
2018-01-20T01:59:35.679Z,97142.78
2018-01-20T02:00:40.295Z,97144.02
2018-01-20T02:01:44.828Z,97140.71
2018-01-20T02:02:49.728Z,97141.47
2018-01-20T02:03:54.467Z,97136.80
2018-01-20T02:04:59.029Z,97135.95
2018-01-20T02:06:03.554Z,97135.49
2018-01-20T02:07:08.081Z,97150.87
2018-01-20T02:08:12.632Z,97126.98
2018-01-20T02:09:17.587Z,97132.38
2018-01-20T02:10:22.128Z,97136.09
2018-01-20T02:11:26.751Z,97135.23
2018-01-20T02:12:31.297Z,97137.56
2018-01-20T02:13:35.828Z,97137.14
2018-01-20T02:14:40.334Z,97141.68
2018-01-20T02:15:45.227Z,97132.63
2018-01-20T02:16:50.080Z,97134.66
2018-01-20T02:17:54.626Z,97131.36
2018-01-20T02:18:59.189Z,97139.62
2018-01-20T02:20:03.722Z,97139.92
2018-01-20T02:21:08.286Z,97129.92
2018-01-20T02:22:13.114Z,97134.89
2018-01-20T02:23:17.744Z,97129.21
2018-01-20T02:24:22.276Z,97131.42
2018-01-20T02:25:26.827Z,97131.83
2018-01-20T02:26:31.483Z,97135.87
2018-01-20T02:27:36.076Z,97132.12
2018-01-20T02:28:41.053Z,97129.14
2018-01-20T02:29:45.573Z,97134.41
2018-01-20T02:30:50.189Z,97129.95
2018-01-20T02:31:54.744Z,97131.13
2018-01-20T02:32:59.292Z,97121.71
2018-01-20T02:34:04.195Z,97130.50
2018-01-20T02:35:09.202Z,97131.71
2018-01-20T02:36:13.705Z,97134.97
2018-01-20T02:37:18.228Z,97128.98
2018-01-20T02:38:22.745Z,97131.73
2018-01-20T02:39:27.286Z,97127.27
2018-01-20T02:40:32.197Z,97127.48
2018-01-20T02:41:36.942Z,97133.57
2018-01-20T02:42:41.389Z,97130.13
2018-01-20T02:43:45.968Z,97125.75
2018-01-20T02:44:50.491Z,97119.59
2018-01-20T02:45:55.044Z,97127.77
2018-01-20T02:46:59.593Z,97124.21
2018-01-20T02:48:04.430Z,97125.02
2018-01-20T02:49:08.967Z,97125.98
2018-01-20T02:50:13.950Z,97128.55
2018-01-20T02:51:18.487Z,97120.22
2018-01-20T02:52:23.038Z,97123.05
2018-01-20T02:53:27.625Z,97121.50
2018-01-20T02:54:32.462Z,97122.13
2018-01-20T02:55:37.039Z,97120.52
2018-01-20T02:56:41.610Z,97121.15
2018-01-20T02:57:46.145Z,97124.45
2018-01-20T02:58:50.753Z,97119.74
2018-01-20T02:59:55.335Z,97122.11
2018-01-20T03:01:00.359Z,97126.33
2018-01-20T03:02:04.903Z,97126.66
2018-01-20T03:03:09.436Z,97124.56
2018-01-20T03:04:13.992Z,97112.49
2018-01-20T03:05:18.622Z,97123.20
2018-01-20T03:06:23.256Z,97121.26
2018-01-20T03:07:28.118Z,97126.28
2018-01-20T03:08:32.816Z,97127.17
2018-01-20T03:09:37.385Z,97121.64
2018-01-20T03:10:41.937Z,97118.55
2018-01-20T03:11:46.538Z,97104.97
2018-01-20T03:12:51.159Z,97124.03
2018-01-20T03:13:56.022Z,97117.52
2018-01-20T03:15:00.602Z,97120.91
2018-01-20T03:16:05.209Z,97105.70
2018-01-20T03:17:09.801Z,97109.87
2018-01-20T03:18:14.386Z,97111.53
2018-01-20T03:19:18.901Z,97122.64
2018-01-20T03:20:23.659Z,97111.81
2018-01-20T03:21:28.187Z,97108.05
2018-01-20T03:22:32.816Z,97118.25
2018-01-20T03:23:37.325Z,97119.16
2018-01-20T03:24:41.724Z,97106.78
2018-01-20T03:25:46.124Z,97110.14
2018-01-20T03:26:50.763Z,97108.15
2018-01-20T03:27:55.128Z,97106.18
2018-01-20T03:28:59.638Z,97111.43
2018-01-20T03:30:04.211Z,97106.84
2018-01-20T03:31:08.896Z,97111.33
2018-01-20T03:32:13.496Z,97105.95
2018-01-20T03:33:18.273Z,97107.64
2018-01-20T03:34:22.723Z,97103.55
2018-01-20T03:35:27.212Z,97097.44
2018-01-20T03:36:31.683Z,97112.39
2018-01-20T03:37:36.149Z,97111.91
2018-01-20T03:38:40.605Z,97101.25
2018-01-20T03:39:45.325Z,97101.66
2018-01-20T03:40:49.773Z,97103.95
2018-01-20T03:41:54.255Z,97093.17
2018-01-20T03:42:58.673Z,97105.98
2018-01-20T03:44:03.193Z,97088.80
2018-01-20T03:45:07.629Z,97096.95
2018-01-20T03:46:12.483Z,97098.20
2018-01-20T03:47:16.903Z,97090.88
2018-01-20T03:48:21.365Z,97101.66
2018-01-20T03:49:25.878Z,97097.16
2018-01-20T03:50:30.298Z,97091.48
2018-01-20T03:51:34.816Z,97087.97
2018-01-20T03:52:39.612Z,97090.14
2018-01-20T03:53:44.082Z,97080.36
2018-01-20T03:54:48.633Z,97091.09
2018-01-20T03:55:53.235Z,97089.72
2018-01-20T03:56:57.875Z,97085.23
2018-01-20T03:58:02.546Z,97082.41
2018-01-20T03:59:07.432Z,97087.11
2018-01-20T04:00:12.053Z,97087.81
2018-01-20T04:01:16.725Z,97077.63
2018-01-20T04:02:21.262Z,97079.30
2018-01-20T04:03:25.781Z,97075.25
2018-01-20T04:04:30.356Z,97073.81
2018-01-20T04:05:35.175Z,97075.31
2018-01-20T04:06:39.971Z,97077.72
2018-01-20T04:07:44.724Z,97074.69
2018-01-20T04:08:49.481Z,97077.91
2018-01-20T04:09:54.242Z,97084.39
2018-01-20T04:10:58.981Z,97076.61
2018-01-20T04:12:03.907Z,97077.16
2018-01-20T04:13:08.485Z,97077.67
2018-01-20T04:14:13.076Z,97075.12
2018-01-20T04:15:17.643Z,97075.41
2018-01-20T04:16:22.241Z,97077.84
2018-01-20T04:17:26.839Z,97078.83
2018-01-20T04:18:31.682Z,97086.23
2018-01-20T04:19:36.383Z,97075.95
2018-01-20T04:20:40.966Z,97076.31
2018-01-20T04:21:45.511Z,97077.11
2018-01-20T04:22:50.080Z,97077.57
2018-01-20T04:23:54.682Z,97073.38
2018-01-20T04:24:59.578Z,97065.55
2018-01-20T04:26:04.160Z,97068.45
2018-01-20T04:27:08.858Z,97067.30
2018-01-20T04:28:13.525Z,97064.37
2018-01-20T04:29:18.291Z,97062.05
2018-01-20T04:30:23.047Z,97065.71
2018-01-20T04:31:28.050Z,97059.60
2018-01-20T04:32:32.813Z,97065.28
2018-01-20T04:33:37.566Z,97058.70
2018-01-20T04:34:42.297Z,97062.91
2018-01-20T04:35:47.113Z,97055.97
2018-01-20T04:36:51.858Z,97059.34
2018-01-20T04:37:56.964Z,97061.72
2018-01-20T04:39:01.741Z,97066.97
2018-01-20T04:40:06.454Z,97055.46
2018-01-20T04:41:11.193Z,97058.77
2018-01-20T04:42:15.995Z,97059.80
2018-01-20T04:43:20.752Z,97052.55
2018-01-20T04:44:25.788Z,97059.29
2018-01-20T04:45:30.565Z,97046.45
2018-01-20T04:46:35.221Z,97054.66
2018-01-20T04:47:39.905Z,97049.35
2018-01-20T04:48:44.551Z,97049.80
2018-01-20T04:49:49.252Z,97047.59
2018-01-20T04:50:54.204Z,97052.94
2018-01-20T04:51:58.918Z,97049.28
2018-01-20T04:53:03.686Z,97048.90
2018-01-20T04:54:08.381Z,97048.06
2018-01-20T04:55:13.322Z,97047.62
2018-01-20T04:56:17.985Z,97050.19
2018-01-20T04:57:23.110Z,97048.90
2018-01-20T04:58:27.822Z,97050.97
2018-01-20T04:59:32.498Z,97047.54
2018-01-20T05:00:37.258Z,97048.66
2018-01-20T05:01:41.966Z,97050.72
2018-01-20T05:02:46.601Z,97051.13
2018-01-20T05:03:51.556Z,97051.87
2018-01-20T05:04:56.137Z,97052.22
2018-01-20T05:06:00.730Z,97054.30
2018-01-20T05:07:05.370Z,97054.31
2018-01-20T05:08:09.938Z,97057.09
2018-01-20T05:09:14.499Z,97056.69
2018-01-20T05:10:19.445Z,97051.63
2018-01-20T05:11:24.154Z,97045.87
2018-01-20T05:12:28.787Z,97048.29
2018-01-20T05:13:33.482Z,97045.34
2018-01-20T05:14:38.182Z,97046.45
2018-01-20T05:15:42.854Z,97048.34
2018-01-20T05:16:47.812Z,97050.77
2018-01-20T05:17:52.515Z,97047.89
2018-01-20T05:18:57.161Z,97050.46
2018-01-20T05:20:01.838Z,97045.50
2018-01-20T05:21:06.496Z,97054.81
2018-01-20T05:22:11.154Z,97053.73
2018-01-20T05:23:16.107Z,97054.11
2018-01-20T05:24:20.774Z,97044.19
2018-01-20T05:25:25.254Z,97051.08
2018-01-20T05:26:29.759Z,97053.91
2018-01-20T05:27:34.300Z,97048.09
2018-01-20T05:28:38.778Z,97053.45
2018-01-20T05:29:43.673Z,97047.74
2018-01-20T05:30:48.225Z,97053.45
2018-01-20T05:31:52.779Z,97052.21
2018-01-20T05:32:58.212Z,97048.02
2018-01-20T05:34:03.017Z,97052.14
2018-01-20T05:35:07.710Z,97041.33
2018-01-20T05:36:12.691Z,97049.45
2018-01-20T05:37:17.386Z,97049.96
2018-01-20T05:38:22.081Z,97047.48
2018-01-20T05:39:26.735Z,97048.24
2018-01-20T05:40:31.390Z,97042.86
2018-01-20T05:41:42.635Z,97043.24
2018-01-20T05:42:47.287Z,97055.64
2018-01-20T05:43:51.885Z,97047.44
2018-01-20T05:44:56.614Z,97041.95
2018-01-20T05:46:01.274Z,97039.88
2018-01-20T05:47:05.952Z,97041.80
2018-01-20T05:48:10.949Z,97037.64
2018-01-20T05:49:15.657Z,97046.80
2018-01-20T05:50:20.342Z,97041.45
2018-01-20T05:51:25.033Z,97036.25
2018-01-20T05:52:29.719Z,97044.00
2018-01-20T05:53:34.553Z,97041.80
2018-01-20T05:54:39.522Z,97043.06
2018-01-20T05:55:44.187Z,97038.98
2018-01-20T05:56:48.854Z,97030.19
2018-01-20T05:57:53.561Z,97028.58
2018-01-20T05:58:58.202Z,97033.70
2018-01-20T06:00:02.977Z,97030.75
2018-01-20T06:01:08.105Z,97032.06
2018-01-20T06:02:12.889Z,97032.04
2018-01-20T06:03:17.654Z,97038.55
2018-01-20T06:04:22.373Z,97030.24
2018-01-20T06:05:27.209Z,97028.55
2018-01-20T06:06:31.984Z,97030.19
2018-01-20T06:07:37.071Z,97025.62
2018-01-20T06:08:41.816Z,97027.23
2018-01-20T06:09:46.683Z,97031.70
2018-01-20T06:10:51.438Z,97024.66
2018-01-20T06:11:56.193Z,97030.14
2018-01-20T06:13:00.906Z,97027.87
2018-01-20T06:14:05.953Z,97026.94
2018-01-20T06:15:10.689Z,97020.31
2018-01-20T06:16:15.469Z,97021.13
2018-01-20T06:17:20.227Z,97022.41
2018-01-20T06:18:24.975Z,97017.73
2018-01-20T06:19:29.780Z,97026.41
2018-01-20T06:20:34.892Z,97022.77
2018-01-20T06:21:39.733Z,97025.75
2018-01-20T06:22:44.474Z,97023.27
2018-01-20T06:23:49.374Z,97029.84
2018-01-20T06:24:54.114Z,97022.57
2018-01-20T06:25:58.897Z,97017.59
2018-01-20T06:27:04.039Z,97020.45
2018-01-20T06:28:08.865Z,97021.69
2018-01-20T06:29:13.648Z,97030.85
2018-01-20T06:30:18.533Z,97019.80
2018-01-20T06:31:23.271Z,97024.64
2018-01-20T06:32:27.836Z,97019.99
2018-01-20T06:33:32.644Z,97019.19
2018-01-20T06:34:37.506Z,97021.33
2018-01-20T06:35:42.146Z,97016.71
2018-01-20T06:36:46.799Z,97016.25
2018-01-20T06:37:51.432Z,97018.78
2018-01-20T06:38:56.061Z,97014.21
2018-01-20T06:40:01.093Z,97013.78
2018-01-20T06:41:05.637Z,97011.41
2018-01-20T06:42:10.270Z,97013.10
2018-01-20T06:43:15.007Z,97012.64
2018-01-20T06:44:19.823Z,97009.29
2018-01-20T06:45:24.488Z,97013.75
2018-01-20T06:46:29.466Z,97003.91
2018-01-20T06:47:34.157Z,97014.21
2018-01-20T06:48:38.813Z,97010.12
2018-01-20T06:49:43.442Z,97011.73
2018-01-20T06:50:48.160Z,97021.66
2018-01-20T06:51:52.818Z,97009.72
2018-01-20T06:52:57.806Z,96998.64
2018-01-20T06:54:02.482Z,96997.77
2018-01-20T06:55:07.228Z,97001.48
2018-01-20T06:56:11.879Z,96999.14
2018-01-20T06:57:16.575Z,96996.23
2018-01-20T06:58:21.328Z,97003.77
2018-01-20T06:59:26.495Z,96998.77
2018-01-20T07:00:31.203Z,97006.64
2018-01-20T07:01:35.935Z,97009.49
2018-01-20T07:02:40.632Z,97005.33
2018-01-20T07:03:45.483Z,97000.00
2018-01-20T07:04:50.170Z,96998.84
2018-01-20T07:05:55.149Z,96993.94
2018-01-20T07:06:59.908Z,97004.55
2018-01-20T07:08:04.560Z,96997.48
2018-01-20T07:09:09.231Z,97008.61
2018-01-20T07:10:13.888Z,97009.47
2018-01-20T07:11:18.556Z,97009.90
2018-01-20T07:12:23.632Z,97001.19
2018-01-20T07:13:28.299Z,97000.33
2018-01-20T07:14:32.954Z,96998.53
2018-01-20T07:15:37.715Z,96998.71
2018-01-20T07:16:42.522Z,96995.38
2018-01-20T07:17:47.324Z,96997.30
2018-01-20T07:18:52.421Z,96997.87
2018-01-20T07:19:57.289Z,96999.90
2018-01-20T07:21:01.985Z,96991.72
2018-01-20T07:22:06.765Z,96991.31
2018-01-20T07:23:11.489Z,96983.79
2018-01-20T07:24:16.177Z,96972.44
2018-01-20T07:25:21.193Z,96977.52
2018-01-20T07:26:25.838Z,96977.13
2018-01-20T07:27:30.590Z,96975.45
2018-01-20T07:28:35.343Z,96982.66
2018-01-20T07:29:40.082Z,96973.60
2018-01-20T07:30:44.858Z,96985.11
2018-01-20T07:31:49.932Z,96989.23
2018-01-20T07:32:54.617Z,96976.08
2018-01-20T07:33:59.265Z,96989.71
2018-01-20T07:35:03.933Z,96990.20
2018-01-20T07:36:08.658Z,96982.37
2018-01-20T07:37:13.364Z,96984.28
2018-01-20T07:38:18.379Z,96992.51
2018-01-20T07:39:23.042Z,96989.63
2018-01-20T07:40:27.721Z,96987.11
2018-01-20T07:41:32.460Z,96989.07
2018-01-20T07:42:37.159Z,96987.83
2018-01-20T07:43:41.828Z,96980.86
2018-01-20T07:44:46.892Z,96984.66
2018-01-20T07:45:51.558Z,96978.02
2018-01-20T07:46:56.287Z,96972.63
2018-01-20T07:48:01.054Z,96978.72
2018-01-20T07:49:05.835Z,96970.75
2018-01-20T07:50:10.533Z,96978.20
2018-01-20T07:51:15.215Z,96976.16
2018-01-20T07:52:19.882Z,96967.04
2018-01-20T07:53:24.570Z,96971.91
2018-01-20T07:54:29.268Z,96972.72
2018-01-20T07:55:34.235Z,96974.41
2018-01-20T07:56:39.252Z,96967.55
2018-01-20T07:57:44.049Z,96971.09
2018-01-20T07:58:48.856Z,96973.06
2018-01-20T07:59:53.693Z,96965.93
2018-01-20T08:00:58.477Z,96969.61
2018-01-20T08:02:03.240Z,96968.53
2018-01-20T08:03:08.174Z,96973.72
2018-01-20T08:04:12.812Z,96972.02
2018-01-20T08:05:17.748Z,96959.14
2018-01-20T08:06:22.513Z,96960.68
2018-01-20T08:07:27.119Z,96964.75
2018-01-20T08:08:31.716Z,96961.89
2018-01-20T08:09:36.638Z,96952.42
2018-01-20T08:10:41.263Z,96962.75
2018-01-20T08:11:45.926Z,96957.56
2018-01-20T08:12:50.585Z,96959.77
2018-01-20T08:13:55.277Z,96961.17
2018-01-20T08:14:59.917Z,96963.30
2018-01-20T08:16:04.893Z,96962.75
2018-01-20T08:17:10.096Z,96967.68
2018-01-20T08:18:15.684Z,96964.06
2018-01-20T08:19:20.279Z,96960.27
2018-01-20T08:20:24.899Z,96956.95
2018-01-20T08:21:29.589Z,96956.12
2018-01-20T08:22:34.641Z,96965.63
2018-01-20T08:23:39.420Z,96958.27
2018-01-20T08:24:44.117Z,96957.48
2018-01-20T08:25:48.784Z,96950.76
2018-01-20T08:26:53.470Z,96964.28
2018-01-20T08:27:58.114Z,96952.48
2018-01-20T08:29:02.814Z,96949.06
2018-01-20T08:30:07.495Z,96947.01
2018-01-20T08:31:12.478Z,96950.12
2018-01-20T08:32:17.153Z,96945.20
2018-01-20T08:33:21.990Z,96943.66
2018-01-20T08:34:26.685Z,96940.27
2018-01-20T08:35:31.358Z,96945.64
2018-01-20T08:36:36.002Z,96944.58
2018-01-20T08:37:40.741Z,96935.84
2018-01-20T08:38:45.440Z,96945.27
2018-01-20T08:39:50.548Z,96935.53
2018-01-20T08:40:55.262Z,96944.52
2018-01-20T08:41:59.895Z,96938.62
2018-01-20T08:43:04.545Z,96941.67
2018-01-20T08:44:09.247Z,96937.23
2018-01-20T08:45:13.881Z,96938.10
2018-01-20T08:46:18.853Z,96932.57
2018-01-20T08:47:23.611Z,96936.53
2018-01-20T08:48:28.260Z,96936.83
2018-01-20T08:49:32.923Z,96941.56
2018-01-20T08:50:37.583Z,96933.95
2018-01-20T08:51:42.226Z,96933.59
2018-01-20T08:52:47.197Z,96934.25
2018-01-20T08:53:51.860Z,96932.02
2018-01-20T08:54:56.565Z,96929.80
2018-01-20T08:56:01.227Z,96935.67
2018-01-20T08:57:06.320Z,96929.02
2018-01-20T08:58:10.976Z,96935.81
2018-01-20T08:59:15.899Z,96931.72
2018-01-20T09:00:20.602Z,96930.89
2018-01-20T09:01:25.337Z,96932.59
2018-01-20T09:02:30.206Z,96926.94
2018-01-20T09:03:34.892Z,96918.86
2018-01-20T09:04:39.898Z,96921.44
2018-01-20T09:05:45.007Z,96917.02
2018-01-20T09:06:49.773Z,96917.89
2018-01-20T09:07:54.495Z,96915.33
2018-01-20T09:08:59.207Z,96916.59
2018-01-20T09:10:03.993Z,96917.49
2018-01-20T09:11:08.748Z,96909.96
2018-01-20T09:12:13.774Z,96910.27
2018-01-20T09:13:18.477Z,96904.35
2018-01-20T09:14:23.348Z,96911.38
2018-01-20T09:15:29.020Z,96900.78
2018-01-20T09:16:33.752Z,96900.20
2018-01-20T09:17:38.423Z,96903.86
2018-01-20T09:18:43.479Z,96913.16
2018-01-20T09:19:48.280Z,96914.27
2018-01-20T09:20:52.961Z,96906.30
2018-01-20T09:21:57.770Z,96911.14
2018-01-20T09:24:17.736Z,96908.66
2018-01-20T09:25:22.953Z,96900.78
2018-01-20T09:26:27.637Z,96910.08
2018-01-20T09:27:32.362Z,96895.97
2018-01-20T09:28:37.020Z,96903.73
2018-01-20T09:29:42.136Z,96897.78
2018-01-20T09:30:46.762Z,96886.75
2018-01-20T09:31:52.247Z,96889.82
2018-01-20T09:32:56.971Z,96894.84
2018-01-20T09:34:01.668Z,96881.36
2018-01-20T09:35:06.520Z,96892.17
2018-01-20T09:36:11.297Z,96893.53
2018-01-20T09:37:16.094Z,96904.55
2018-01-20T09:38:21.153Z,96900.28
2018-01-20T09:39:25.914Z,96900.47
2018-01-20T09:40:30.739Z,96891.20
2018-01-20T09:41:35.694Z,96882.78
2018-01-20T09:42:40.491Z,96891.53
2018-01-20T09:43:45.645Z,96900.76
2018-01-20T09:44:50.726Z,96899.70
2018-01-20T09:45:55.717Z,96896.83
2018-01-20T09:47:00.555Z,96897.06
2018-01-20T09:48:05.436Z,96894.93
2018-01-20T09:49:10.309Z,96894.17
2018-01-20T09:50:15.224Z,96892.38
2018-01-20T09:51:20.429Z,96882.73
2018-01-20T09:52:25.374Z,96892.09
2018-01-20T09:53:30.143Z,96896.85
2018-01-20T09:54:34.998Z,96885.58
2018-01-20T09:55:39.882Z,96874.26
2018-01-20T09:56:45.249Z,96875.50
2018-01-20T09:57:52.157Z,96879.69
2018-01-20T09:58:56.978Z,96872.16
2018-01-20T10:00:01.711Z,96867.41
2018-01-20T10:01:06.324Z,96871.23
2018-01-20T10:02:11.009Z,96873.48
2018-01-20T10:03:15.612Z,96868.31
2018-01-20T10:04:20.628Z,96867.55
2018-01-20T10:05:25.303Z,96872.26
2018-01-20T10:06:30.045Z,96871.83
2018-01-20T10:07:34.779Z,96872.00
2018-01-20T10:08:39.522Z,96856.27
2018-01-20T10:09:44.247Z,96859.11
2018-01-20T10:10:49.379Z,96860.67
2018-01-20T10:11:54.038Z,96866.09
2018-01-20T10:12:58.989Z,96856.46
2018-01-20T10:14:03.721Z,96849.68
2018-01-20T10:15:08.413Z,96846.54
2018-01-20T10:16:13.152Z,96843.45
2018-01-20T10:17:18.223Z,96846.75
2018-01-20T10:18:22.875Z,96840.72
2018-01-20T10:19:27.817Z,96838.28
2018-01-20T10:20:32.470Z,96841.58
2018-01-20T10:21:37.250Z,96838.33
2018-01-20T10:22:42.017Z,96840.95
2018-01-20T10:23:48.334Z,96835.03
2018-01-20T10:24:53.757Z,96835.19
2018-01-20T10:25:59.659Z,96837.95
2018-01-20T10:27:04.513Z,96838.84
2018-01-20T10:28:10.627Z,96827.00
2018-01-20T10:29:16.212Z,96829.20
2018-01-20T10:30:21.397Z,96832.79
2018-01-20T10:31:26.132Z,96825.77
2018-01-20T10:32:30.709Z,96822.70
2018-01-20T10:33:36.650Z,96815.00
2018-01-20T10:34:43.184Z,96803.63
2018-01-20T10:35:49.498Z,96811.80
2018-01-20T10:36:54.236Z,96814.23
2018-01-20T10:38:01.066Z,96795.66
2018-01-20T10:39:08.150Z,96804.93
2018-01-20T10:40:14.681Z,96806.53
2018-01-20T10:41:22.231Z,96802.84
2018-01-20T10:42:30.504Z,96789.91
2018-01-20T10:43:35.498Z,96795.84
2018-01-20T10:44:42.334Z,96792.95
2018-01-20T10:45:49.218Z,96802.75
2018-01-20T10:46:57.066Z,96796.98
2018-01-20T10:48:08.096Z,96792.33
2018-01-20T10:49:15.521Z,96795.34
2018-01-20T10:50:22.521Z,96793.63
2018-01-20T10:51:31.186Z,96801.91
2018-01-20T10:52:36.846Z,96789.23
2018-01-20T10:53:42.495Z,96787.70
2018-01-20T10:54:48.016Z,96782.37
2018-01-20T10:55:53.445Z,96792.35
2018-01-20T10:56:59.736Z,96779.92
2018-01-20T10:58:05.053Z,96790.98
2018-01-20T10:59:10.454Z,96766.18
2018-01-20T11:00:16.269Z,96771.05
2018-01-20T11:01:21.002Z,96769.40
2018-01-20T11:02:28.810Z,96768.30
2018-01-20T11:03:36.930Z,96765.84
2018-01-20T11:04:42.870Z,96769.09
2018-01-20T11:05:50.180Z,96762.90
2018-01-20T11:06:56.592Z,96770.10
2018-01-20T11:08:01.522Z,96761.05
2018-01-20T11:09:10.243Z,96762.77
2018-01-20T11:10:17.531Z,96762.19
2018-01-20T11:11:25.106Z,96755.49
2018-01-20T11:12:33.032Z,96759.05
2018-01-20T11:13:43.091Z,96755.19
2018-01-20T11:14:48.919Z,96753.45
2018-01-20T11:15:58.127Z,96755.96
2018-01-20T11:17:07.124Z,96747.52
2018-01-20T11:18:14.793Z,96747.45
2018-01-20T11:19:25.992Z,96746.04
2018-01-20T11:20:35.842Z,96733.77
2018-01-20T11:21:45.901Z,96741.58
2018-01-20T11:22:51.506Z,96732.50
2018-01-20T11:23:57.697Z,96739.40
2018-01-20T11:25:06.705Z,96729.22
2018-01-20T11:26:14.264Z,96718.72
2018-01-20T11:27:23.190Z,96716.61
2018-01-20T11:28:32.265Z,96711.00
2018-01-20T11:29:40.781Z,96708.75
2018-01-20T11:30:49.781Z,96704.91
2018-01-20T11:31:55.787Z,96707.58
2018-01-20T11:33:02.501Z,96705.34
2018-01-20T11:34:10.869Z,96696.59
2018-01-20T11:35:20.424Z,96697.73
2018-01-20T11:36:27.426Z,96696.92
2018-01-20T11:37:35.497Z,96691.67
2018-01-20T11:38:43.272Z,96692.00
2018-01-20T11:39:50.518Z,96693.64
2018-01-20T11:40:57.242Z,96691.07
2018-01-20T11:42:02.153Z,96686.11
2018-01-20T11:43:08.511Z,96683.55
2018-01-20T11:44:15.692Z,96683.79
2018-01-20T11:45:22.886Z,96679.27
2018-01-20T11:46:30.151Z,96672.66
2018-01-20T11:47:38.312Z,96675.76
2018-01-20T11:48:46.654Z,96676.48
2018-01-20T11:49:54.795Z,96663.86
2018-01-20T11:51:01.400Z,96664.07
2018-01-20T11:52:06.626Z,96660.63
2018-01-20T11:53:13.410Z,96660.47
2018-01-20T11:54:21.150Z,96661.47
2018-01-20T11:55:28.905Z,96653.23
2018-01-20T11:56:36.195Z,96657.70
2018-01-20T11:57:43.385Z,96652.00
2018-01-20T11:58:49.742Z,96648.32
2018-01-20T11:59:56.624Z,96651.64
2018-01-20T12:01:05.088Z,96637.54
2018-01-20T12:02:10.273Z,96645.94
2018-01-20T12:03:17.026Z,96635.00
2018-01-20T12:04:24.859Z,96634.59
2018-01-20T12:05:32.436Z,96628.44
2018-01-20T12:06:40.484Z,96628.87
2018-01-20T12:07:48.922Z,96626.30
2018-01-20T12:08:57.493Z,96618.29
2018-01-20T12:10:04.584Z,96613.94
2018-01-20T12:11:10.450Z,96613.94
2018-01-20T12:12:16.620Z,96612.00
2018-01-20T12:13:24.362Z,96616.15
2018-01-20T12:14:30.764Z,96613.34
2018-01-20T12:15:37.811Z,96602.45
2018-01-20T12:16:45.407Z,96601.05
2018-01-20T12:17:52.794Z,96595.36
2018-01-20T12:19:00.523Z,96594.69
2018-01-20T12:20:08.995Z,96591.61
2018-01-20T12:21:16.121Z,96591.61
2018-01-20T12:22:23.792Z,96587.02
2018-01-20T12:23:31.834Z,96583.74
2018-01-20T12:24:40.883Z,96580.50
2018-01-20T12:25:48.801Z,96572.93
2018-01-20T12:26:57.630Z,96571.69
2018-01-20T12:28:04.524Z,96569.45
2018-01-20T12:29:13.332Z,96566.74
2018-01-20T12:30:20.067Z,96563.63
2018-01-20T12:31:26.552Z,96561.95
2018-01-20T12:32:33.542Z,96560.14
2018-01-20T12:33:42.458Z,96555.56
2018-01-20T12:34:53.021Z,96552.92
2018-01-20T12:36:00.821Z,96552.95
2018-01-20T12:37:08.670Z,96549.94
2018-01-20T12:38:17.070Z,96544.35
2018-01-20T12:39:22.804Z,96545.19
2018-01-20T12:40:29.547Z,96547.80
2018-01-20T12:41:37.541Z,96537.70
2018-01-20T12:42:43.348Z,96534.52
2018-01-20T12:43:51.024Z,96536.39
2018-01-20T12:44:58.479Z,96531.84
2018-01-20T12:46:06.317Z,96530.77
2018-01-20T12:47:15.162Z,96537.77
2018-01-20T12:48:23.096Z,96530.73
2018-01-20T12:49:29.335Z,96516.55